sensor_id;sensor_type;location;lat;lon;timestamp;P1;durP1;ratioP1;P2;durP2;ratioP2
79401;SDS011;68857;47.916;106.940;2024-02-26T00:00:24;14.10;;;5.15;;
79401;SDS011;68857;47.916;106.940;2024-02-26T00:02:50;26.77;;;8.10;;
79401;SDS011;68857;47.916;106.940;2024-02-26T00:05:17;29.58;;;7.80;;
79401;SDS011;68857;47.916;106.940;2024-02-26T00:07:44;27.98;;;10.90;;
79401;SDS011;68857;47.916;106.940;2024-02-26T00:10:12;39.05;;;13.52;;
79401;SDS011;68857;47.916;106.940;2024-02-26T00:12:40;40.80;;;11.60;;
79401;SDS011;68857;47.916;106.940;2024-02-26T00:15:07;37.92;;;13.13;;
79401;SDS011;68857;47.916;106.940;2024-02-26T00:17:34;48.45;;;16.50;;
79401;SDS011;68857;47.916;106.940;2024-02-26T00:20:02;48.63;;;15.38;;
79401;SDS011;68857;47.916;106.940;2024-02-26T00:22:30;54.30;;;16.45;;
79401;SDS011;68857;47.916;106.940;2024-02-26T00:24:57;52.65;;;16.02;;
79401;SDS011;68857;47.916;106.940;2024-02-26T00:27:23;58.22;;;17.67;;
79401;SDS011;68857;47.916;106.940;2024-02-26T00:29:50;40.47;;;15.27;;
79401;SDS011;68857;47.916;106.940;2024-02-26T00:32:17;49.75;;;15.57;;
79401;SDS011;68857;47.916;106.940;2024-02-26T00:34:44;52.38;;;17.83;;
79401;SDS011;68857;47.916;106.940;2024-02-26T00:37:10;50.63;;;16.75;;
79401;SDS011;68857;47.916;106.940;2024-02-26T00:39:37;48.33;;;17.38;;
79401;SDS011;68857;47.916;106.940;2024-02-26T00:47:22;41.97;;;14.70;;
79401;SDS011;68857;47.916;106.940;2024-02-26T00:49:48;42.45;;;13.82;;
79401;SDS011;68857;47.916;106.940;2024-02-26T00:52:15;35.75;;;13.77;;
79401;SDS011;68857;47.916;106.940;2024-02-26T00:54:42;48.05;;;14.63;;
79401;SDS011;68857;47.916;106.940;2024-02-26T00:57:09;43.78;;;13.32;;
79401;SDS011;68857;47.916;106.940;2024-02-26T00:59:36;42.45;;;13.05;;
79401;SDS011;68857;47.916;106.940;2024-02-26T01:02:04;34.20;;;12.77;;
79401;SDS011;68857;47.916;106.940;2024-02-26T01:04:32;39.15;;;12.30;;
79401;SDS011;68857;47.916;106.940;2024-02-26T01:06:59;35.63;;;11.68;;
79401;SDS011;68857;47.916;106.940;2024-02-26T01:09:26;37.90;;;11.75;;
79401;SDS011;68857;47.916;106.940;2024-02-26T01:11:53;36.80;;;11.52;;
79401;SDS011;68857;47.916;106.940;2024-02-26T01:14:19;35.97;;;11.10;;
79401;SDS011;68857;47.916;106.940;2024-02-26T01:16:46;35.92;;;10.65;;
79401;SDS011;68857;47.916;106.940;2024-02-26T01:19:13;26.92;;;10.15;;
79401;SDS011;68857;47.916;106.940;2024-02-26T01:21:40;32.90;;;11.48;;
79401;SDS011;68857;47.916;106.940;2024-02-26T01:24:07;23.15;;;8.85;;
79401;SDS011;68857;47.916;106.940;2024-02-26T01:26:34;27.80;;;9.30;;
79401;SDS011;68857;47.916;106.940;2024-02-26T01:29:01;27.13;;;9.52;;
79401;SDS011;68857;47.916;106.940;2024-02-26T01:31:27;28.85;;;8.93;;
79401;SDS011;68857;47.916;106.940;2024-02-26T01:33:54;30.88;;;9.38;;
79401;SDS011;68857;47.916;106.940;2024-02-26T01:36:21;37.88;;;10.75;;
79401;SDS011;68857;47.916;106.940;2024-02-26T01:38:48;33.88;;;10.38;;
79401;SDS011;68857;47.916;106.940;2024-02-26T01:41:14;36.53;;;10.85;;
79401;SDS011;68857;47.916;106.940;2024-02-26T01:43:41;35.75;;;10.63;;
79401;SDS011;68857;47.916;106.940;2024-02-26T01:46:10;26.45;;;9.38;;
79401;SDS011;68857;47.916;106.940;2024-02-26T01:48:42;28.88;;;10.15;;
79401;SDS011;68857;47.916;106.940;2024-02-26T01:51:09;30.70;;;10.45;;
79401;SDS011;68857;47.916;106.940;2024-02-26T01:53:36;30.13;;;9.43;;
79401;SDS011;68857;47.916;106.940;2024-02-26T01:56:03;32.65;;;10.43;;
79401;SDS011;68857;47.916;106.940;2024-02-26T01:58:30;41.25;;;13.35;;
79401;SDS011;68857;47.916;106.940;2024-02-26T02:00:57;32.65;;;12.40;;
79401;SDS011;68857;47.916;106.940;2024-02-26T02:03:25;38.85;;;14.00;;
79401;SDS011;68857;47.916;106.940;2024-02-26T02:05:52;30.42;;;13.48;;
79401;SDS011;68857;47.916;106.940;2024-02-26T02:08:18;37.08;;;12.10;;
79401;SDS011;68857;47.916;106.940;2024-02-26T02:10:45;43.72;;;12.35;;
79401;SDS011;68857;47.916;106.940;2024-02-26T02:13:15;40.22;;;13.43;;
79401;SDS011;68857;47.916;106.940;2024-02-26T02:15:42;36.90;;;13.00;;
79401;SDS011;68857;47.916;106.940;2024-02-26T02:18:08;31.58;;;11.77;;
79401;SDS011;68857;47.916;106.940;2024-02-26T02:20:36;41.10;;;13.63;;
79401;SDS011;68857;47.916;106.940;2024-02-26T02:23:03;37.30;;;12.43;;
79401;SDS011;68857;47.916;106.940;2024-02-26T02:25:29;45.30;;;14.68;;
79401;SDS011;68857;47.916;106.940;2024-02-26T02:27:56;38.85;;;14.73;;
79401;SDS011;68857;47.916;106.940;2024-02-26T02:30:24;51.05;;;14.00;;
79401;SDS011;68857;47.916;106.940;2024-02-26T02:32:52;51.30;;;15.55;;
79401;SDS011;68857;47.916;106.940;2024-02-26T02:35:19;45.90;;;15.13;;
79401;SDS011;68857;47.916;106.940;2024-02-26T02:37:46;47.47;;;14.50;;
79401;SDS011;68857;47.916;106.940;2024-02-26T02:40:13;41.40;;;14.80;;
79401;SDS011;68857;47.916;106.940;2024-02-26T02:42:40;44.47;;;15.38;;
79401;SDS011;68857;47.916;106.940;2024-02-26T02:45:06;42.63;;;15.50;;
79401;SDS011;68857;47.916;106.940;2024-02-26T02:47:35;51.28;;;17.00;;
79401;SDS011;68857;47.916;106.940;2024-02-26T02:50:03;47.22;;;18.38;;
79401;SDS011;68857;47.916;106.940;2024-02-26T02:54:56;52.35;;;16.48;;
79401;SDS011;68857;47.916;106.940;2024-02-26T02:57:23;56.00;;;20.58;;
79401;SDS011;68857;47.916;106.940;2024-02-26T02:59:50;62.58;;;20.95;;
79401;SDS011;68857;47.916;106.940;2024-02-26T03:02:16;63.15;;;21.85;;
79401;SDS011;68857;47.916;106.940;2024-02-26T03:04:43;57.75;;;20.48;;
79401;SDS011;68857;47.916;106.940;2024-02-26T03:07:13;67.80;;;22.48;;
79401;SDS011;68857;47.916;106.940;2024-02-26T03:09:40;67.28;;;21.98;;
79401;SDS011;68857;47.916;106.940;2024-02-26T03:12:06;63.05;;;22.40;;
79401;SDS011;68857;47.916;106.940;2024-02-26T03:17:00;64.53;;;22.38;;
79401;SDS011;68857;47.916;106.940;2024-02-26T03:19:27;66.85;;;21.85;;
79401;SDS011;68857;47.916;106.940;2024-02-26T03:21:53;74.85;;;24.33;;
79401;SDS011;68857;47.916;106.940;2024-02-26T03:24:20;68.80;;;24.35;;
79401;SDS011;68857;47.916;106.940;2024-02-26T03:26:47;67.38;;;25.80;;
79401;SDS011;68857;47.916;106.940;2024-02-26T03:29:14;64.47;;;21.75;;
79401;SDS011;68857;47.916;106.940;2024-02-26T03:31:41;72.57;;;25.88;;
79401;SDS011;68857;47.916;106.940;2024-02-26T03:34:07;71.35;;;25.15;;
79401;SDS011;68857;47.916;106.940;2024-02-26T03:36:34;66.97;;;24.00;;
79401;SDS011;68857;47.916;106.940;2024-02-26T03:39:01;72.78;;;22.75;;
79401;SDS011;68857;47.916;106.940;2024-02-26T03:41:33;70.40;;;24.55;;
79401;SDS011;68857;47.916;106.940;2024-02-26T03:44:00;67.82;;;22.73;;
79401;SDS011;68857;47.916;106.940;2024-02-26T03:46:27;62.47;;;22.65;;
79401;SDS011;68857;47.916;106.940;2024-02-26T03:48:54;70.85;;;21.95;;
79401;SDS011;68857;47.916;106.940;2024-02-26T03:51:21;63.10;;;23.80;;
79401;SDS011;68857;47.916;106.940;2024-02-26T03:53:47;62.33;;;22.15;;
79401;SDS011;68857;47.916;106.940;2024-02-26T03:56:14;62.03;;;21.90;;
79401;SDS011;68857;47.916;106.940;2024-02-26T03:58:42;58.72;;;20.80;;
79401;SDS011;68857;47.916;106.940;2024-02-26T04:03:35;56.05;;;19.45;;
79401;SDS011;68857;47.916;106.940;2024-02-26T04:08:28;54.17;;;19.58;;
79401;SDS011;68857;47.916;106.940;2024-02-26T04:10:55;59.60;;;21.15;;
79401;SDS011;68857;47.916;106.940;2024-02-26T04:13:22;56.85;;;20.40;;
79401;SDS011;68857;47.916;106.940;2024-02-26T04:15:48;58.78;;;19.38;;
79401;SDS011;68857;47.916;106.940;2024-02-26T04:18:15;55.80;;;19.88;;
79401;SDS011;68857;47.916;106.940;2024-02-26T04:20:42;55.33;;;19.27;;
79401;SDS011;68857;47.916;106.940;2024-02-26T04:23:08;60.55;;;19.88;;
79401;SDS011;68857;47.916;106.940;2024-02-26T04:25:35;53.28;;;18.67;;
79401;SDS011;68857;47.916;106.940;2024-02-26T04:28:02;53.15;;;20.73;;
79401;SDS011;68857;47.916;106.940;2024-02-26T04:30:29;57.58;;;18.95;;
79401;SDS011;68857;47.916;106.940;2024-02-26T04:32:56;47.15;;;17.65;;
79401;SDS011;68857;47.916;106.940;2024-02-26T04:35:23;53.55;;;16.88;;
79401;SDS011;68857;47.916;106.940;2024-02-26T04:37:49;54.97;;;19.10;;
79401;SDS011;68857;47.916;106.940;2024-02-26T04:40:16;53.25;;;17.73;;
79401;SDS011;68857;47.916;106.940;2024-02-26T04:42:43;50.10;;;17.83;;
79401;SDS011;68857;47.916;106.940;2024-02-26T04:45:10;48.78;;;15.23;;
79401;SDS011;68857;47.916;106.940;2024-02-26T04:47:36;44.22;;;15.30;;
79401;SDS011;68857;47.916;106.940;2024-02-26T04:50:03;45.83;;;13.90;;
79401;SDS011;68857;47.916;106.940;2024-02-26T04:54:56;30.42;;;12.20;;
79401;SDS011;68857;47.916;106.940;2024-02-26T04:57:25;34.08;;;11.13;;
79401;SDS011;68857;47.916;106.940;2024-02-26T04:59:52;33.17;;;11.52;;
79401;SDS011;68857;47.916;106.940;2024-02-26T05:02:18;31.85;;;11.18;;
79401;SDS011;68857;47.916;106.940;2024-02-26T05:04:45;31.98;;;10.48;;
79401;SDS011;68857;47.916;106.940;2024-02-26T05:07:12;39.65;;;10.95;;
79401;SDS011;68857;47.916;106.940;2024-02-26T05:09:39;33.55;;;12.05;;
79401;SDS011;68857;47.916;106.940;2024-02-26T05:12:07;38.58;;;11.23;;
79401;SDS011;68857;47.916;106.940;2024-02-26T05:14:34;29.67;;;10.30;;
79401;SDS011;68857;47.916;106.940;2024-02-26T05:17:00;29.42;;;9.60;;
79401;SDS011;68857;47.916;106.940;2024-02-26T05:19:27;22.92;;;8.27;;
79401;SDS011;68857;47.916;106.940;2024-02-26T05:21:54;28.70;;;8.90;;
79401;SDS011;68857;47.916;106.940;2024-02-26T05:24:22;22.33;;;7.50;;
79401;SDS011;68857;47.916;106.940;2024-02-26T05:26:49;26.15;;;8.18;;
79401;SDS011;68857;47.916;106.940;2024-02-26T05:29:15;23.08;;;6.95;;
79401;SDS011;68857;47.916;106.940;2024-02-26T05:31:42;23.35;;;6.25;;
79401;SDS011;68857;47.916;106.940;2024-02-26T05:34:09;22.08;;;5.63;;
79401;SDS011;68857;47.916;106.940;2024-02-26T05:36:36;31.00;;;6.60;;
79401;SDS011;68857;47.916;106.940;2024-02-26T05:39:04;14.88;;;4.97;;
79401;SDS011;68857;47.916;106.940;2024-02-26T05:41:30;16.95;;;4.65;;
79401;SDS011;68857;47.916;106.940;2024-02-26T05:43:58;15.50;;;5.40;;
79401;SDS011;68857;47.916;106.940;2024-02-26T05:48:53;18.55;;;4.80;;
79401;SDS011;68857;47.916;106.940;2024-02-26T05:51:20;19.02;;;5.13;;
79401;SDS011;68857;47.916;106.940;2024-02-26T05:53:47;15.10;;;4.53;;
79401;SDS011;68857;47.916;106.940;2024-02-26T05:56:19;17.08;;;4.70;;
79401;SDS011;68857;47.916;106.940;2024-02-26T05:58:46;15.98;;;5.95;;
79401;SDS011;68857;47.916;106.940;2024-02-26T06:03:39;12.05;;;4.18;;
79401;SDS011;68857;47.916;106.940;2024-02-26T06:06:06;18.05;;;6.15;;
79401;SDS011;68857;47.916;106.940;2024-02-26T06:08:33;17.90;;;6.05;;
79401;SDS011;68857;47.916;106.940;2024-02-26T06:10:59;21.55;;;6.30;;
79401;SDS011;68857;47.916;106.940;2024-02-26T06:13:31;20.75;;;5.80;;
79401;SDS011;68857;47.916;106.940;2024-02-26T06:15:58;23.48;;;6.93;;
79401;SDS011;68857;47.916;106.940;2024-02-26T06:18:25;19.80;;;6.03;;
79401;SDS011;68857;47.916;106.940;2024-02-26T06:20:51;26.42;;;6.40;;
79401;SDS011;68857;47.916;106.940;2024-02-26T06:23:18;24.40;;;6.40;;
79401;SDS011;68857;47.916;106.940;2024-02-26T06:25:45;22.08;;;6.72;;
79401;SDS011;68857;47.916;106.940;2024-02-26T06:28:13;18.80;;;5.90;;
79401;SDS011;68857;47.916;106.940;2024-02-26T06:30:40;20.30;;;7.25;;
79401;SDS011;68857;47.916;106.940;2024-02-26T06:33:07;22.50;;;6.70;;
79401;SDS011;68857;47.916;106.940;2024-02-26T06:35:34;22.42;;;6.55;;
79401;SDS011;68857;47.916;106.940;2024-02-26T06:40:27;15.20;;;5.50;;
79401;SDS011;68857;47.916;106.940;2024-02-26T06:42:53;17.60;;;5.90;;
79401;SDS011;68857;47.916;106.940;2024-02-26T06:45:20;15.10;;;5.80;;
79401;SDS011;68857;47.916;106.940;2024-02-26T06:47:47;22.55;;;6.18;;
79401;SDS011;68857;47.916;106.940;2024-02-26T06:50:14;21.27;;;6.40;;
79401;SDS011;68857;47.916;106.940;2024-02-26T06:52:40;16.98;;;5.85;;
79401;SDS011;68857;47.916;106.940;2024-02-26T06:55:07;17.92;;;5.18;;
79401;SDS011;68857;47.916;106.940;2024-02-26T06:57:34;19.27;;;5.38;;
79401;SDS011;68857;47.916;106.940;2024-02-26T07:00:01;13.50;;;4.65;;
79401;SDS011;68857;47.916;106.940;2024-02-26T07:02:29;16.73;;;4.72;;
79401;SDS011;68857;47.916;106.940;2024-02-26T07:04:56;22.80;;;5.05;;
79401;SDS011;68857;47.916;106.940;2024-02-26T07:07:24;18.08;;;5.32;;
79401;SDS011;68857;47.916;106.940;2024-02-26T07:09:50;22.00;;;5.70;;
79401;SDS011;68857;47.916;106.940;2024-02-26T07:12:17;17.02;;;4.57;;
79401;SDS011;68857;47.916;106.940;2024-02-26T07:14:46;16.98;;;4.43;;
79401;SDS011;68857;47.916;106.940;2024-02-26T07:17:14;14.35;;;4.70;;
79401;SDS011;68857;47.916;106.940;2024-02-26T07:19:41;15.27;;;3.70;;
79401;SDS011;68857;47.916;106.940;2024-02-26T07:24:34;13.77;;;3.65;;
79401;SDS011;68857;47.916;106.940;2024-02-26T07:27:01;11.75;;;3.17;;
79401;SDS011;68857;47.916;106.940;2024-02-26T07:29:28;15.77;;;4.13;;
79401;SDS011;68857;47.916;106.940;2024-02-26T07:31:55;10.93;;;3.53;;
79401;SDS011;68857;47.916;106.940;2024-02-26T07:34:22;13.20;;;3.95;;
79401;SDS011;68857;47.916;106.940;2024-02-26T07:36:53;18.17;;;4.90;;
79401;SDS011;68857;47.916;106.940;2024-02-26T07:41:46;12.15;;;4.22;;
79401;SDS011;68857;47.916;106.940;2024-02-26T07:44:15;19.02;;;3.92;;
79401;SDS011;68857;47.916;106.940;2024-02-26T07:49:08;16.08;;;3.92;;
79401;SDS011;68857;47.916;106.940;2024-02-26T07:51:35;19.20;;;4.28;;
79401;SDS011;68857;47.916;106.940;2024-02-26T07:54:02;14.00;;;3.72;;
79401;SDS011;68857;47.916;106.940;2024-02-26T07:56:28;14.02;;;3.88;;
79401;SDS011;68857;47.916;106.940;2024-02-26T07:58:55;12.98;;;4.00;;
79401;SDS011;68857;47.916;106.940;2024-02-26T08:01:22;9.52;;;4.00;;
79401;SDS011;68857;47.916;106.940;2024-02-26T08:03:51;16.48;;;3.75;;
79401;SDS011;68857;47.916;106.940;2024-02-26T08:08:44;14.90;;;4.00;;
79401;SDS011;68857;47.916;106.940;2024-02-26T08:11:11;12.95;;;4.05;;
79401;SDS011;68857;47.916;106.940;2024-02-26T08:13:41;10.48;;;3.47;;
79401;SDS011;68857;47.916;106.940;2024-02-26T08:18:34;14.68;;;3.45;;
79401;SDS011;68857;47.916;106.940;2024-02-26T08:21:01;19.90;;;4.45;;
79401;SDS011;68857;47.916;106.940;2024-02-26T08:23:28;18.92;;;4.60;;
79401;SDS011;68857;47.916;106.940;2024-02-26T08:25:56;15.52;;;5.22;;
79401;SDS011;68857;47.916;106.940;2024-02-26T08:28:23;18.38;;;4.40;;
79401;SDS011;68857;47.916;106.940;2024-02-26T08:30:50;21.48;;;4.38;;
79401;SDS011;68857;47.916;106.940;2024-02-26T08:33:17;14.93;;;3.65;;
79401;SDS011;68857;47.916;106.940;2024-02-26T08:35:43;14.65;;;3.97;;
79401;SDS011;68857;47.916;106.940;2024-02-26T08:38:10;14.35;;;4.38;;
79401;SDS011;68857;47.916;106.940;2024-02-26T08:40:37;11.80;;;3.90;;
79401;SDS011;68857;47.916;106.940;2024-02-26T08:43:04;19.50;;;4.47;;
79401;SDS011;68857;47.916;106.940;2024-02-26T08:45:30;17.13;;;3.88;;
79401;SDS011;68857;47.916;106.940;2024-02-26T08:47:57;13.30;;;4.32;;
79401;SDS011;68857;47.916;106.940;2024-02-26T08:52:50;17.73;;;4.38;;
79401;SDS011;68857;47.916;106.940;2024-02-26T08:55:18;15.45;;;4.88;;
79401;SDS011;68857;47.916;106.940;2024-02-26T08:57:45;14.25;;;4.45;;
79401;SDS011;68857;47.916;106.940;2024-02-26T09:00:12;18.73;;;4.97;;
79401;SDS011;68857;47.916;106.940;2024-02-26T09:02:40;15.38;;;3.42;;
79401;SDS011;68857;47.916;106.940;2024-02-26T09:05:10;17.15;;;5.13;;
79401;SDS011;68857;47.916;106.940;2024-02-26T09:07:37;12.35;;;4.43;;
79401;SDS011;68857;47.916;106.940;2024-02-26T09:10:04;19.10;;;4.47;;
79401;SDS011;68857;47.916;106.940;2024-02-26T09:12:31;12.70;;;4.18;;
79401;SDS011;68857;47.916;106.940;2024-02-26T09:14:58;15.48;;;4.20;;
79401;SDS011;68857;47.916;106.940;2024-02-26T09:17:24;19.80;;;5.60;;
79401;SDS011;68857;47.916;106.940;2024-02-26T09:19:51;20.83;;;6.13;;
79401;SDS011;68857;47.916;106.940;2024-02-26T09:22:18;14.98;;;4.85;;
79401;SDS011;68857;47.916;106.940;2024-02-26T09:24:45;17.75;;;4.57;;
79401;SDS011;68857;47.916;106.940;2024-02-26T09:27:15;14.80;;;3.38;;
79401;SDS011;68857;47.916;106.940;2024-02-26T09:32:09;12.82;;;3.20;;
79401;SDS011;68857;47.916;106.940;2024-02-26T09:34:35;11.52;;;3.10;;
79401;SDS011;68857;47.916;106.940;2024-02-26T09:37:02;15.43;;;3.58;;
79401;SDS011;68857;47.916;106.940;2024-02-26T09:39:29;9.85;;;3.97;;
79401;SDS011;68857;47.916;106.940;2024-02-26T09:41:56;11.98;;;3.13;;
79401;SDS011;68857;47.916;106.940;2024-02-26T09:44:25;18.65;;;4.32;;
79401;SDS011;68857;47.916;106.940;2024-02-26T09:46:53;11.43;;;3.38;;
79401;SDS011;68857;47.916;106.940;2024-02-26T09:49:20;15.13;;;3.15;;
79401;SDS011;68857;47.916;106.940;2024-02-26T09:51:48;10.98;;;3.63;;
79401;SDS011;68857;47.916;106.940;2024-02-26T09:54:16;15.15;;;5.00;;
79401;SDS011;68857;47.916;106.940;2024-02-26T09:56:43;14.90;;;4.10;;
79401;SDS011;68857;47.916;106.940;2024-02-26T09:59:15;10.52;;;3.60;;
79401;SDS011;68857;47.916;106.940;2024-02-26T10:01:44;22.30;;;5.13;;
79401;SDS011;68857;47.916;106.940;2024-02-26T10:04:11;13.43;;;4.75;;
79401;SDS011;68857;47.916;106.940;2024-02-26T10:06:38;16.75;;;4.35;;
79401;SDS011;68857;47.916;106.940;2024-02-26T10:09:05;16.23;;;4.47;;
79401;SDS011;68857;47.916;106.940;2024-02-26T10:11:35;14.18;;;4.30;;
79401;SDS011;68857;47.916;106.940;2024-02-26T10:14:04;16.67;;;5.40;;
79401;SDS011;68857;47.916;106.940;2024-02-26T10:16:30;13.98;;;4.25;;
79401;SDS011;68857;47.916;106.940;2024-02-26T10:18:59;13.75;;;4.35;;
79401;SDS011;68857;47.916;106.940;2024-02-26T10:21:26;16.60;;;5.28;;
79401;SDS011;68857;47.916;106.940;2024-02-26T10:23:53;18.10;;;4.97;;
79401;SDS011;68857;47.916;106.940;2024-02-26T10:26:20;17.33;;;5.72;;
79401;SDS011;68857;47.916;106.940;2024-02-26T10:28:47;19.73;;;7.00;;
79401;SDS011;68857;47.916;106.940;2024-02-26T10:31:14;16.92;;;4.97;;
79401;SDS011;68857;47.916;106.940;2024-02-26T10:33:41;17.73;;;4.82;;
79401;SDS011;68857;47.916;106.940;2024-02-26T10:36:10;11.55;;;4.53;;
79401;SDS011;68857;47.916;106.940;2024-02-26T10:38:37;17.75;;;4.45;;
79401;SDS011;68857;47.916;106.940;2024-02-26T10:41:04;17.73;;;4.65;;
79401;SDS011;68857;47.916;106.940;2024-02-26T10:43:33;15.75;;;4.75;;
79401;SDS011;68857;47.916;106.940;2024-02-26T10:46:00;17.20;;;4.97;;
79401;SDS011;68857;47.916;106.940;2024-02-26T10:48:27;15.38;;;5.10;;
79401;SDS011;68857;47.916;106.940;2024-02-26T10:50:54;14.90;;;4.60;;
79401;SDS011;68857;47.916;106.940;2024-02-26T10:53:23;17.30;;;5.43;;
79401;SDS011;68857;47.916;106.940;2024-02-26T10:56:08;23.27;;;5.85;;
79401;SDS011;68857;47.916;106.940;2024-02-26T10:58:35;18.48;;;5.95;;
79401;SDS011;68857;47.916;106.940;2024-02-26T11:01:02;19.42;;;5.68;;
79401;SDS011;68857;47.916;106.940;2024-02-26T11:03:30;22.83;;;8.27;;
79401;SDS011;68857;47.916;106.940;2024-02-26T11:06:01;22.98;;;7.90;;
79401;SDS011;68857;47.916;106.940;2024-02-26T11:08:30;22.63;;;7.22;;
79401;SDS011;68857;47.916;106.940;2024-02-26T11:10:57;19.75;;;5.80;;
79401;SDS011;68857;47.916;106.940;2024-02-26T11:13:26;18.80;;;5.65;;
79401;SDS011;68857;47.916;106.940;2024-02-26T11:15:55;19.60;;;6.32;;
79401;SDS011;68857;47.916;106.940;2024-02-26T11:18:26;21.50;;;5.80;;
79401;SDS011;68857;47.916;106.940;2024-02-26T11:20:54;23.55;;;6.10;;
79401;SDS011;68857;47.916;106.940;2024-02-26T11:23:22;17.30;;;6.72;;
79401;SDS011;68857;47.916;106.940;2024-02-26T11:25:50;19.67;;;6.03;;
79401;SDS011;68857;47.916;106.940;2024-02-26T11:28:18;20.42;;;5.82;;
79401;SDS011;68857;47.916;106.940;2024-02-26T11:30:47;18.52;;;6.10;;
79401;SDS011;68857;47.916;106.940;2024-02-26T11:33:15;20.25;;;5.65;;
79401;SDS011;68857;47.916;106.940;2024-02-26T11:35:41;19.10;;;6.35;;
79401;SDS011;68857;47.916;106.940;2024-02-26T11:38:08;21.63;;;6.95;;
79401;SDS011;68857;47.916;106.940;2024-02-26T11:40:43;21.23;;;7.35;;
79401;SDS011;68857;47.916;106.940;2024-02-26T11:43:10;23.00;;;6.78;;
79401;SDS011;68857;47.916;106.940;2024-02-26T11:48:14;14.65;;;6.18;;
79401;SDS011;68857;47.916;106.940;2024-02-26T11:58:41;25.00;;;7.35;;
79401;SDS011;68857;47.916;106.940;2024-02-26T12:03:55;27.52;;;7.63;;
79401;SDS011;68857;47.916;106.940;2024-02-26T12:06:23;27.23;;;6.70;;
79401;SDS011;68857;47.916;106.940;2024-02-26T12:08:50;32.05;;;6.82;;
79401;SDS011;68857;47.916;106.940;2024-02-26T12:11:17;29.05;;;7.55;;
79401;SDS011;68857;47.916;106.940;2024-02-26T12:13:46;25.35;;;7.93;;
79401;SDS011;68857;47.916;106.940;2024-02-26T12:19:03;24.15;;;6.55;;
79401;SDS011;68857;47.916;106.940;2024-02-26T12:21:31;22.00;;;6.28;;
79401;SDS011;68857;47.916;106.940;2024-02-26T12:24:06;25.77;;;8.80;;
79401;SDS011;68857;47.916;106.940;2024-02-26T12:26:33;35.25;;;8.30;;
79401;SDS011;68857;47.916;106.940;2024-02-26T12:29:00;34.47;;;8.10;;
79401;SDS011;68857;47.916;106.940;2024-02-26T12:31:27;36.80;;;12.10;;
79401;SDS011;68857;47.916;106.940;2024-02-26T12:33:54;22.83;;;8.30;;
79401;SDS011;68857;47.916;106.940;2024-02-26T12:36:21;23.35;;;9.23;;
79401;SDS011;68857;47.916;106.940;2024-02-26T12:38:51;33.35;;;6.60;;
79401;SDS011;68857;47.916;106.940;2024-02-26T12:41:17;15.45;;;5.70;;
79401;SDS011;68857;47.916;106.940;2024-02-26T12:43:44;21.85;;;7.20;;
79401;SDS011;68857;47.916;106.940;2024-02-26T12:46:11;24.50;;;6.50;;
79401;SDS011;68857;47.916;106.940;2024-02-26T12:48:39;22.15;;;6.82;;
79401;SDS011;68857;47.916;106.940;2024-02-26T12:51:07;27.48;;;6.13;;
79401;SDS011;68857;47.916;106.940;2024-02-26T12:53:35;21.15;;;5.75;;
79401;SDS011;68857;47.916;106.940;2024-02-26T12:56:02;22.90;;;7.57;;
79401;SDS011;68857;47.916;106.940;2024-02-26T12:58:29;25.65;;;6.97;;
79401;SDS011;68857;47.916;106.940;2024-02-26T13:00:58;33.17;;;8.68;;
79401;SDS011;68857;47.916;106.940;2024-02-26T13:03:25;27.27;;;10.00;;
79401;SDS011;68857;47.916;106.940;2024-02-26T13:05:52;47.50;;;11.00;;
79401;SDS011;68857;47.916;106.940;2024-02-26T13:08:20;42.08;;;11.35;;
79401;SDS011;68857;47.916;106.940;2024-02-26T13:13:16;34.67;;;11.80;;
79401;SDS011;68857;47.916;106.940;2024-02-26T13:15:43;46.53;;;14.68;;
79401;SDS011;68857;47.916;106.940;2024-02-26T13:18:10;47.30;;;15.02;;
79401;SDS011;68857;47.916;106.940;2024-02-26T13:20:37;45.05;;;16.00;;
79401;SDS011;68857;47.916;106.940;2024-02-26T13:23:08;51.60;;;16.35;;
79401;SDS011;68857;47.916;106.940;2024-02-26T13:25:34;44.33;;;14.93;;
79401;SDS011;68857;47.916;106.940;2024-02-26T13:28:07;53.38;;;15.63;;
79401;SDS011;68857;47.916;106.940;2024-02-26T13:30:37;40.78;;;13.50;;
79401;SDS011;68857;47.916;106.940;2024-02-26T13:33:10;39.50;;;12.25;;
79401;SDS011;68857;47.916;106.940;2024-02-26T13:35:38;36.75;;;10.98;;
79401;SDS011;68857;47.916;106.940;2024-02-26T13:40:34;32.58;;;9.40;;
79401;SDS011;68857;47.916;106.940;2024-02-26T13:43:01;28.63;;;9.05;;
79401;SDS011;68857;47.916;106.940;2024-02-26T13:45:28;30.02;;;8.25;;
79401;SDS011;68857;47.916;106.940;2024-02-26T13:47:56;25.23;;;9.18;;
79401;SDS011;68857;47.916;106.940;2024-02-26T13:50:27;23.48;;;9.23;;
79401;SDS011;68857;47.916;106.940;2024-02-26T13:52:54;32.20;;;8.95;;
79401;SDS011;68857;47.916;106.940;2024-02-26T13:55:22;29.38;;;9.13;;
79401;SDS011;68857;47.916;106.940;2024-02-26T13:57:51;26.80;;;8.20;;
79401;SDS011;68857;47.916;106.940;2024-02-26T14:00:19;30.52;;;10.07;;
79401;SDS011;68857;47.916;106.940;2024-02-26T14:02:46;31.35;;;9.00;;
79401;SDS011;68857;47.916;106.940;2024-02-26T14:05:13;30.45;;;9.23;;
79401;SDS011;68857;47.916;106.940;2024-02-26T14:07:40;30.25;;;9.50;;
79401;SDS011;68857;47.916;106.940;2024-02-26T14:10:07;32.95;;;11.30;;
79401;SDS011;68857;47.916;106.940;2024-02-26T14:12:35;33.67;;;10.95;;
79401;SDS011;68857;47.916;106.940;2024-02-26T14:15:03;33.08;;;10.65;;
79401;SDS011;68857;47.916;106.940;2024-02-26T14:17:30;40.30;;;12.20;;
79401;SDS011;68857;47.916;106.940;2024-02-26T14:19:57;38.25;;;12.07;;
79401;SDS011;68857;47.916;106.940;2024-02-26T14:22:24;33.30;;;11.30;;
79401;SDS011;68857;47.916;106.940;2024-02-26T14:24:56;34.95;;;10.07;;
79401;SDS011;68857;47.916;106.940;2024-02-26T14:27:23;29.63;;;10.27;;
79401;SDS011;68857;47.916;106.940;2024-02-26T14:29:50;34.00;;;9.73;;
79401;SDS011;68857;47.916;106.940;2024-02-26T14:32:16;30.30;;;9.88;;
79401;SDS011;68857;47.916;106.940;2024-02-26T14:34:43;31.70;;;9.52;;
79401;SDS011;68857;47.916;106.940;2024-02-26T14:37:10;34.47;;;11.80;;
79401;SDS011;68857;47.916;106.940;2024-02-26T14:39:37;29.23;;;9.38;;
79401;SDS011;68857;47.916;106.940;2024-02-26T14:42:04;35.25;;;10.00;;
79401;SDS011;68857;47.916;106.940;2024-02-26T14:44:32;32.50;;;11.50;;
79401;SDS011;68857;47.916;106.940;2024-02-26T14:46:58;31.33;;;10.13;;
79401;SDS011;68857;47.916;106.940;2024-02-26T14:49:25;35.90;;;12.23;;
79401;SDS011;68857;47.916;106.940;2024-02-26T14:51:52;28.27;;;10.55;;
79401;SDS011;68857;47.916;106.940;2024-02-26T14:54:19;42.30;;;12.80;;
79401;SDS011;68857;47.916;106.940;2024-02-26T14:56:46;34.35;;;10.57;;
79401;SDS011;68857;47.916;106.940;2024-02-26T14:59:13;28.77;;;10.60;;
79401;SDS011;68857;47.916;106.940;2024-02-26T15:01:40;36.65;;;10.77;;
79401;SDS011;68857;47.916;106.940;2024-02-26T15:04:07;32.47;;;11.05;;
79401;SDS011;68857;47.916;106.940;2024-02-26T15:06:34;33.08;;;11.43;;